createdAt,value
2022-08-29T00:00:50.963Z,25.22
2022-08-29T00:03:19.585Z,25.23
2022-08-29T00:05:50.131Z,25.22
2022-08-29T00:08:19.956Z,25.24
2022-08-29T00:10:48.636Z,25.22
2022-08-29T00:13:18.829Z,25.21
2022-08-29T00:15:47.451Z,25.20
2022-08-29T00:18:18.920Z,25.20
2022-08-29T00:20:48.367Z,25.21
2022-08-29T00:23:17.278Z,25.23
2022-08-29T00:25:46.306Z,25.23
2022-08-29T00:28:14.933Z,25.24
2022-08-29T00:30:46.849Z,25.22
2022-08-29T00:33:15.279Z,25.22
2022-08-29T00:35:46.422Z,25.20
2022-08-29T00:38:19.327Z,25.20
2022-08-29T00:40:52.389Z,25.19
2022-08-29T00:43:24.737Z,25.19
2022-08-29T00:46:04.239Z,25.17
2022-08-29T00:48:35.204Z,25.19
2022-08-29T00:51:08.881Z,25.16
2022-08-29T00:53:43.435Z,25.13
2022-08-29T00:56:17.865Z,25.13
2022-08-29T00:58:51.957Z,25.12
2022-08-29T01:01:23.362Z,25.13
2022-08-29T01:03:53.296Z,25.13
2022-08-29T01:06:23.995Z,25.12
2022-08-29T01:08:57.263Z,25.12
2022-08-29T01:11:46.940Z,25.10
2022-08-29T01:14:16.291Z,25.07
2022-08-29T01:16:51.205Z,25.07
2022-08-29T01:19:40.894Z,25.06
2022-08-29T01:22:23.749Z,25.06
2022-08-29T01:24:55.253Z,25.07
2022-08-29T01:27:28.889Z,25.07
2022-08-29T01:29:57.814Z,25.09
2022-08-29T01:32:26.456Z,25.09
2022-08-29T01:34:56.009Z,25.07
2022-08-29T01:37:25.528Z,25.07
2022-08-29T01:39:55.324Z,25.05
2022-08-29T01:42:25.703Z,25.05
2022-08-29T01:44:58.512Z,25.04
2022-08-29T01:47:34.444Z,25.02
2022-08-29T01:50:03.672Z,25.01
2022-08-29T01:52:32.688Z,25.01
2022-08-29T01:55:02.394Z,25.01
2022-08-29T01:57:30.966Z,25.01
2022-08-29T01:59:59.907Z,25.01
2022-08-29T02:02:30.734Z,24.99
2022-08-29T02:04:59.202Z,25.00
2022-08-29T02:07:29.520Z,24.98
2022-08-29T02:09:57.923Z,24.99
2022-08-29T02:12:27.980Z,24.99
2022-08-29T02:14:56.354Z,24.98
2022-08-29T02:17:24.831Z,24.98
2022-08-29T02:19:53.376Z,24.98
2022-08-29T02:22:21.942Z,25.00
2022-08-29T02:24:50.301Z,24.99
2022-08-29T02:27:18.735Z,24.98
2022-08-29T02:29:48.546Z,24.97
2022-08-29T02:32:18.270Z,24.97
2022-08-29T02:34:48.408Z,24.96
2022-08-29T02:37:18.021Z,24.95
2022-08-29T02:39:46.743Z,24.95
2022-08-29T02:42:15.114Z,24.94
2022-08-29T02:44:43.499Z,24.94
2022-08-29T02:47:14.532Z,24.90
2022-08-29T02:49:43.863Z,24.91
2022-08-29T02:52:12.685Z,24.90
2022-08-29T02:54:41.090Z,24.92
2022-08-29T02:57:09.769Z,24.92
2022-08-29T02:59:38.120Z,24.93
2022-08-29T03:02:07.652Z,24.90
2022-08-29T03:04:37.484Z,24.88
2022-08-29T03:07:06.392Z,24.88
2022-08-29T03:09:34.798Z,24.86
2022-08-29T03:12:03.342Z,24.85
2022-08-29T03:14:31.758Z,24.84
2022-08-29T03:17:00.190Z,24.83
2022-08-29T03:19:29.015Z,24.81
2022-08-29T03:21:58.790Z,24.81
2022-08-29T03:24:27.306Z,24.80
2022-08-29T03:26:56.860Z,24.81
2022-08-29T03:29:27.158Z,24.80
2022-08-29T03:31:58.492Z,24.79
2022-08-29T03:34:27.419Z,24.79
2022-08-29T03:36:56.236Z,24.79
2022-08-29T03:39:26.516Z,24.79
2022-08-29T03:41:54.910Z,24.79
2022-08-29T03:44:24.165Z,24.79
2022-08-29T03:46:52.589Z,24.82
2022-08-29T03:49:21.020Z,24.82
2022-08-29T03:51:50.095Z,24.82
2022-08-29T03:54:18.882Z,24.83
2022-08-29T03:56:48.840Z,24.85
2022-08-29T03:59:18.124Z,24.86
2022-08-29T04:01:48.610Z,24.88
2022-08-29T04:04:31.913Z,24.90
2022-08-29T04:07:01.523Z,24.93
2022-08-29T04:09:30.445Z,24.96
2022-08-29T04:12:00.944Z,24.96
2022-08-29T04:14:29.618Z,24.97
2022-08-29T04:16:58.175Z,24.98
2022-08-29T04:19:26.655Z,24.98
2022-08-29T04:21:55.040Z,24.98
2022-08-29T04:24:23.393Z,24.99
2022-08-29T04:26:52.423Z,25.00
2022-08-29T04:29:22.132Z,25.01
2022-08-29T04:31:50.478Z,25.04
2022-08-29T04:34:19.486Z,25.05
2022-08-29T04:36:48.684Z,25.06
2022-08-29T04:39:17.434Z,25.06
2022-08-29T04:41:45.810Z,25.06
2022-08-29T04:44:14.403Z,25.07
2022-08-29T04:46:44.159Z,25.07
2022-08-29T04:49:15.444Z,25.08
2022-08-29T04:51:43.838Z,25.09
2022-08-29T04:54:12.226Z,25.08
2022-08-29T04:56:47.194Z,25.09
2022-08-29T04:59:16.918Z,25.10
2022-08-29T05:01:48.175Z,25.09
2022-08-29T05:04:16.594Z,25.10
2022-08-29T05:06:45.418Z,25.11
2022-08-29T05:09:14.040Z,25.10
2022-08-29T05:11:42.826Z,25.10
2022-08-29T05:14:11.973Z,25.10
2022-08-29T05:16:40.860Z,25.13
2022-08-29T05:19:11.751Z,25.12
2022-08-29T05:21:41.904Z,25.14
2022-08-29T05:24:13.123Z,25.13
2022-08-29T05:26:45.081Z,25.13
2022-08-29T05:29:14.541Z,25.16
2022-08-29T05:31:44.393Z,25.17
2022-08-29T05:34:32.712Z,25.17
2022-08-29T05:37:05.821Z,25.17
2022-08-29T05:39:34.766Z,25.17
2022-08-29T05:42:04.364Z,25.20
2022-08-29T05:44:35.440Z,25.25
2022-08-29T05:47:05.513Z,25.29
2022-08-29T05:49:37.685Z,25.34
2022-08-29T05:52:07.580Z,25.39
2022-08-29T05:54:39.570Z,25.45
2022-08-29T05:57:09.446Z,25.52
2022-08-29T05:59:39.004Z,25.57
2022-08-29T06:02:10.144Z,25.64
2022-08-29T06:04:40.970Z,25.70
2022-08-29T06:07:11.053Z,25.75
2022-08-29T06:09:41.078Z,25.81
2022-08-29T06:12:11.399Z,25.85
2022-08-29T06:14:40.238Z,25.90
2022-08-29T06:17:09.750Z,25.96
2022-08-29T06:19:43.605Z,26.00
2022-08-29T06:22:12.684Z,26.07
2022-08-29T06:24:44.431Z,26.11
2022-08-29T06:27:14.346Z,26.16
2022-08-29T06:29:43.500Z,26.21
2022-08-29T06:32:12.363Z,26.25
2022-08-29T06:34:42.350Z,26.22
2022-08-29T06:37:11.034Z,26.20
2022-08-29T06:39:39.910Z,26.22
2022-08-29T06:42:08.780Z,26.25
2022-08-29T06:44:41.338Z,26.28
2022-08-29T06:47:13.304Z,26.37
2022-08-29T06:49:43.020Z,26.45
2022-08-29T06:52:11.511Z,26.53
2022-08-29T06:54:39.918Z,26.56
2022-08-29T06:57:08.368Z,26.61
2022-08-29T06:59:37.140Z,26.65
2022-08-29T07:02:05.940Z,26.70
2022-08-29T07:04:34.313Z,26.76
2022-08-29T07:07:05.409Z,26.82
2022-08-29T07:09:34.110Z,26.88
2022-08-29T07:12:03.015Z,26.94
2022-08-29T07:14:31.377Z,27.03
2022-08-29T07:17:00.791Z,27.14
2022-08-29T07:19:29.284Z,27.21
2022-08-29T07:22:00.493Z,27.27
2022-08-29T07:24:30.282Z,27.32
2022-08-29T07:26:58.711Z,27.32
2022-08-29T07:29:27.548Z,27.30
2022-08-29T07:31:56.030Z,27.27
2022-08-29T07:34:24.444Z,27.28
2022-08-29T07:36:53.147Z,27.31
2022-08-29T07:39:23.010Z,27.35
2022-08-29T07:41:53.176Z,27.45
2022-08-29T07:44:21.639Z,27.59
2022-08-29T07:46:50.369Z,27.75
2022-08-29T07:49:18.770Z,27.94
2022-08-29T07:51:47.952Z,28.13
2022-08-29T07:54:19.493Z,28.27
2022-08-29T07:56:52.917Z,28.39
2022-08-29T07:59:23.218Z,28.50
2022-08-29T08:01:51.996Z,28.58
2022-08-29T08:04:24.282Z,28.68
2022-08-29T08:06:53.154Z,28.78
2022-08-29T08:09:23.936Z,28.78
2022-08-29T08:11:52.384Z,28.74
2022-08-29T08:14:34.618Z,28.66
2022-08-29T08:17:03.974Z,28.60
2022-08-29T08:19:33.326Z,28.48
2022-08-29T08:22:02.315Z,28.39
2022-08-29T08:24:30.796Z,28.28
2022-08-29T08:26:59.214Z,28.23
2022-08-29T08:29:29.205Z,28.23
2022-08-29T08:31:59.930Z,28.24
2022-08-29T08:34:30.872Z,28.29
2022-08-29T08:36:59.283Z,28.39
2022-08-29T08:39:27.743Z,28.44
2022-08-29T08:42:03.308Z,28.50
2022-08-29T08:45:09.053Z,28.53
2022-08-29T08:47:43.584Z,28.62
2022-08-29T08:50:25.346Z,28.68
2022-08-29T08:52:59.359Z,28.75
2022-08-29T08:55:40.643Z,28.79
2022-08-29T08:58:28.777Z,28.77
2022-08-29T09:01:03.795Z,28.74
2022-08-29T09:04:13.170Z,28.70
2022-08-29T09:07:01.061Z,28.79
2022-08-29T09:09:46.601Z,28.93
2022-08-29T09:12:32.588Z,29.07
2022-08-29T09:15:13.435Z,29.16
2022-08-29T09:17:49.891Z,29.25
2022-08-29T09:20:25.011Z,29.33
2022-08-29T09:23:02.199Z,29.35
2022-08-29T09:25:31.876Z,29.40
2022-08-29T09:28:00.792Z,29.45
2022-08-29T09:30:34.098Z,29.55
2022-08-29T09:33:09.287Z,29.64
2022-08-29T09:35:41.210Z,29.75
2022-08-29T09:38:19.456Z,29.78
2022-08-29T09:40:55.858Z,29.76
2022-08-29T09:43:46.160Z,29.73
2022-08-29T09:46:23.483Z,29.74
2022-08-29T09:49:16.296Z,29.72
2022-08-29T09:51:47.930Z,29.80
2022-08-29T09:54:27.005Z,29.85
2022-08-29T09:57:00.016Z,29.84
2022-08-29T09:59:35.306Z,29.91
2022-08-29T10:02:24.440Z,29.99
2022-08-29T10:04:57.710Z,30.05
2022-08-29T10:07:30.982Z,30.03
2022-08-29T10:10:05.367Z,29.97
2022-08-29T10:12:48.958Z,29.93
2022-08-29T10:15:46.927Z,29.99
2022-08-29T10:18:28.764Z,29.98
2022-08-29T10:21:16.849Z,30.01
2022-08-29T10:24:15.929Z,30.03
2022-08-29T10:26:58.522Z,29.98
2022-08-29T10:29:48.156Z,29.90
2022-08-29T10:32:32.222Z,29.89
2022-08-29T10:35:14.492Z,29.86
2022-08-29T10:37:54.320Z,29.85
2022-08-29T10:40:30.688Z,29.88
2022-08-29T10:43:26.704Z,30.04
2022-08-29T10:46:13.149Z,30.29
2022-08-29T10:48:54.756Z,30.65
2022-08-29T10:51:32.583Z,31.03
2022-08-29T10:54:14.430Z,31.42
2022-08-29T10:56:47.562Z,31.81
2022-08-29T10:59:24.417Z,32.16
2022-08-29T11:02:01.395Z,32.52
2022-08-29T11:04:37.654Z,32.94
2022-08-29T11:07:13.162Z,33.38
2022-08-29T11:09:49.313Z,33.78
2022-08-29T11:12:24.967Z,34.14
2022-08-29T11:15:00.865Z,34.40
2022-08-29T11:17:38.491Z,34.70
2022-08-29T11:20:14.907Z,35.07
2022-08-29T11:22:51.623Z,35.43
2022-08-29T11:25:22.791Z,35.73
2022-08-29T11:28:01.919Z,36.04
2022-08-29T11:30:47.385Z,36.44
2022-08-29T11:33:38.896Z,36.81
2022-08-29T11:36:47.786Z,37.22
2022-08-29T11:39:50.063Z,37.73
2022-08-29T11:45:24.924Z,38.20
2022-08-29T11:48:31.552Z,38.34
2022-08-29T11:51:21.704Z,38.61
2022-08-29T11:53:50.152Z,39.06
2022-08-29T11:56:28.533Z,39.49
2022-08-29T11:59:00.217Z,39.89
2022-08-29T12:02:00.740Z,40.23
2022-08-29T12:04:54.817Z,40.52
2022-08-29T12:07:36.804Z,40.73
2022-08-29T12:10:11.701Z,41.01
2022-08-29T12:12:47.430Z,41.23
2022-08-29T12:15:55.402Z,41.28
2022-08-29T12:18:36.830Z,41.39
2022-08-29T12:21:49.595Z,41.50
2022-08-29T12:24:41.849Z,41.65
2022-08-29T12:28:00.747Z,41.81
2022-08-29T12:30:32.330Z,42.05
2022-08-29T12:33:13.289Z,42.29
2022-08-29T12:36:08.574Z,42.67
2022-08-29T12:38:53.413Z,43.07
2022-08-29T12:41:49.762Z,43.39
2022-08-29T12:44:26.587Z,43.38
2022-08-29T12:47:03.425Z,43.23
2022-08-29T12:49:42.688Z,43.08
2022-08-29T12:52:27.979Z,43.19
2022-08-29T12:54:59.341Z,43.34
2022-08-29T12:57:34.247Z,43.57
2022-08-29T13:00:12.255Z,43.89
2022-08-29T13:02:40.999Z,44.15
2022-08-29T13:05:28.360Z,44.34
2022-08-29T13:08:00.206Z,44.65
2022-08-29T13:10:30.075Z,44.76
2022-08-29T13:13:08.567Z,44.88
2022-08-29T13:15:37.651Z,45.00
2022-08-29T13:18:07.412Z,45.11
2022-08-29T13:21:03.368Z,45.24
2022-08-29T13:23:35.752Z,45.37
2022-08-29T13:26:09.170Z,45.55
2022-08-29T13:28:43.809Z,45.70
2022-08-29T13:31:36.326Z,45.90
2022-08-29T13:34:29.285Z,46.14
2022-08-29T13:37:10.504Z,46.46
2022-08-29T13:39:48.319Z,46.87
2022-08-29T13:42:34.636Z,47.07
2022-08-29T13:45:23.509Z,47.19
2022-08-29T13:48:20.495Z,46.99
2022-08-29T13:50:49.011Z,46.70
2022-08-29T13:53:19.276Z,46.41
2022-08-29T13:55:48.213Z,46.27
2022-08-29T13:58:20.049Z,46.32
2022-08-29T14:00:48.831Z,46.32
2022-08-29T14:03:18.669Z,46.20
2022-08-29T14:05:47.794Z,46.15
2022-08-29T14:08:16.304Z,46.22
2022-08-29T14:10:49.064Z,46.32
2022-08-29T14:13:17.896Z,46.55
2022-08-29T14:15:46.473Z,46.78
2022-08-29T14:18:16.256Z,46.88
2022-08-29T14:20:44.932Z,46.78
2022-08-29T14:23:13.331Z,46.79
2022-08-29T14:25:41.791Z,46.76
2022-08-29T14:28:18.479Z,46.51
2022-08-29T14:30:47.824Z,46.40
2022-08-29T14:33:23.481Z,46.45
2022-08-29T14:35:53.109Z,46.63
2022-08-29T14:38:25.005Z,46.96
2022-08-29T14:40:54.051Z,47.22
2022-08-29T14:43:23.937Z,47.35
2022-08-29T14:45:52.795Z,46.82
2022-08-29T14:48:22.245Z,45.78
2022-08-29T14:50:54.297Z,44.60
2022-08-29T14:53:23.477Z,43.40
2022-08-29T14:55:56.010Z,42.19
2022-08-29T14:58:26.512Z,41.10
2022-08-29T15:00:57.945Z,40.14
2022-08-29T15:03:26.735Z,39.29
2022-08-29T15:05:55.577Z,38.53
2022-08-29T15:08:25.307Z,37.86
2022-08-29T15:11:00.841Z,37.27
2022-08-29T15:13:33.070Z,36.77
2022-08-29T15:16:06.213Z,36.30
2022-08-29T15:19:31.152Z,35.92
2022-08-29T15:21:29.577Z,35.53
2022-08-29T15:23:58.360Z,35.24
2022-08-29T15:26:30.506Z,34.96
2022-08-29T15:29:09.289Z,34.66
2022-08-29T15:31:38.515Z,34.43
2022-08-29T15:34:11.559Z,34.20
2022-08-29T15:36:44.199Z,34.00
2022-08-29T15:39:13.565Z,33.80
2022-08-29T15:41:42.970Z,33.65
2022-08-29T15:44:13.336Z,33.48
2022-08-29T15:46:43.236Z,33.34
2022-08-29T15:49:21.825Z,33.19
2022-08-29T15:51:55.107Z,33.08
2022-08-29T15:54:25.858Z,32.96
2022-08-29T15:56:58.201Z,32.86
2022-08-29T15:59:54.412Z,32.78
2022-08-29T16:02:20.380Z,32.70
2022-08-29T16:04:54.773Z,32.63
2022-08-29T16:07:29.447Z,32.54
2022-08-29T16:10:01.492Z,32.48
2022-08-29T16:12:35.464Z,32.39
2022-08-29T16:15:10.278Z,32.27
2022-08-29T16:17:40.066Z,32.19
2022-08-29T16:20:12.533Z,32.10
2022-08-29T16:22:43.670Z,32.04
2022-08-29T16:25:15.357Z,31.98
2022-08-29T16:27:44.533Z,31.90
2022-08-29T16:30:17.279Z,31.82
2022-08-29T16:32:46.601Z,31.76
2022-08-29T16:35:16.978Z,31.70
2022-08-29T16:38:02.155Z,31.64
2022-08-29T16:40:32.285Z,31.57
2022-08-29T16:43:02.781Z,31.52
2022-08-29T16:45:33.524Z,31.45
2022-08-29T16:48:02.568Z,31.40
2022-08-29T16:50:33.237Z,31.33
2022-08-29T16:53:03.299Z,31.26
2022-08-29T16:55:32.212Z,31.18
2022-08-29T16:58:18.169Z,31.12
2022-08-29T17:00:48.141Z,31.02
2022-08-29T17:03:20.092Z,30.97
2022-08-29T17:05:49.449Z,30.91
2022-08-29T17:08:17.317Z,30.85
2022-08-29T17:10:44.945Z,30.79
2022-08-29T17:13:12.702Z,30.72
2022-08-29T17:15:40.594Z,30.66
2022-08-29T17:18:10.469Z,30.59
2022-08-29T17:20:38.988Z,30.52
2022-08-29T17:23:10.149Z,30.45
2022-08-29T17:25:39.526Z,30.37
2022-08-29T17:28:17.797Z,30.30
2022-08-29T17:30:48.784Z,30.22
2022-08-29T17:33:19.806Z,30.16
2022-08-29T17:35:49.223Z,30.09
2022-08-29T17:38:18.656Z,30.03
2022-08-29T17:40:49.121Z,29.96
2022-08-29T17:43:22.076Z,29.89
2022-08-29T17:45:51.482Z,29.83
2022-08-29T17:48:22.871Z,29.76
2022-08-29T17:50:52.223Z,29.70
2022-08-29T17:53:21.894Z,29.63
2022-08-29T17:55:51.252Z,29.56
2022-08-29T17:58:21.784Z,29.50
2022-08-29T18:00:51.724Z,29.42
2022-08-29T18:03:21.668Z,29.36
2022-08-29T18:05:50.054Z,29.28
2022-08-29T18:08:18.657Z,29.21
2022-08-29T18:10:48.127Z,29.12
2022-08-29T18:13:21.034Z,29.07
2022-08-29T18:15:51.549Z,29.00
2022-08-29T18:18:22.662Z,28.94
2022-08-29T18:20:51.052Z,28.89
2022-08-29T18:23:20.063Z,28.82
2022-08-29T18:25:48.914Z,28.76
2022-08-29T18:28:17.499Z,28.71
2022-08-29T18:30:46.139Z,28.64
2022-08-29T18:33:14.922Z,28.59
2022-08-29T18:35:45.063Z,28.52
2022-08-29T18:38:13.660Z,28.48
2022-08-29T18:40:42.909Z,28.42
2022-08-29T18:43:11.825Z,28.37
2022-08-29T18:45:41.527Z,28.32
2022-08-29T18:48:11.339Z,28.28
2022-08-29T18:50:40.787Z,28.24
2022-08-29T18:53:13.890Z,28.19
2022-08-29T18:55:50.493Z,28.15
2022-08-29T18:58:21.520Z,28.10
2022-08-29T19:00:51.106Z,28.07
2022-08-29T19:03:20.300Z,28.03
2022-08-29T19:05:51.991Z,27.99
2022-08-29T19:08:25.195Z,27.93
2022-08-29T19:10:55.619Z,27.91
2022-08-29T19:13:25.303Z,27.87
2022-08-29T19:15:54.364Z,27.83
2022-08-29T19:18:23.564Z,27.81
2022-08-29T19:21:06.397Z,27.78
2022-08-29T19:23:39.518Z,27.72
2022-08-29T19:26:11.816Z,27.69
2022-08-29T19:28:41.035Z,27.68
2022-08-29T19:31:10.589Z,27.65
2022-08-29T19:33:42.677Z,27.62
2022-08-29T19:36:12.051Z,27.60
2022-08-29T19:38:42.823Z,27.55
2022-08-29T19:41:12.545Z,27.52
2022-08-29T19:43:41.948Z,27.49
2022-08-29T19:46:16.510Z,27.45
2022-08-29T19:48:48.441Z,27.43
2022-08-29T19:51:25.070Z,27.38
2022-08-29T19:53:57.136Z,27.35
2022-08-29T19:56:26.802Z,27.31
2022-08-29T19:58:55.588Z,27.28
2022-08-29T20:01:25.859Z,27.23
2022-08-29T20:03:55.094Z,27.20
2022-08-29T20:06:24.715Z,27.17
2022-08-29T20:08:54.702Z,27.13
2022-08-29T20:11:25.966Z,27.08
2022-08-29T20:13:57.824Z,27.05
2022-08-29T20:16:31.008Z,27.02
2022-08-29T20:19:00.552Z,27.00
2022-08-29T20:21:29.578Z,26.97
2022-08-29T20:23:59.438Z,26.94
2022-08-29T20:26:34.334Z,26.90
2022-08-29T20:29:06.574Z,26.89
2022-08-29T20:31:36.081Z,26.86
2022-08-29T20:34:05.657Z,26.84
2022-08-29T20:36:51.279Z,26.82
2022-08-29T20:39:23.083Z,26.78
2022-08-29T20:41:53.743Z,26.76
2022-08-29T20:44:22.599Z,26.73
2022-08-29T20:46:52.131Z,26.71
2022-08-29T20:49:23.170Z,26.69
2022-08-29T20:51:52.498Z,26.67
2022-08-29T20:54:25.359Z,26.64
2022-08-29T20:56:55.368Z,26.64
2022-08-29T20:59:26.636Z,26.60
2022-08-29T21:01:56.443Z,26.58
2022-08-29T21:04:42.538Z,26.57
2022-08-29T21:07:14.230Z,26.53
2022-08-29T21:09:52.004Z,26.49
2022-08-29T21:12:21.608Z,26.50
2022-08-29T21:14:55.920Z,26.46
2022-08-29T21:17:24.382Z,26.45
2022-08-29T21:19:52.796Z,26.43
2022-08-29T21:22:24.829Z,26.41
2022-08-29T21:24:56.232Z,26.39
2022-08-29T21:27:24.715Z,26.38
2022-08-29T21:29:56.753Z,26.35
2022-08-29T21:32:25.207Z,26.33
2022-08-29T21:34:53.613Z,26.32
2022-08-29T21:37:22.166Z,26.31
2022-08-29T21:39:50.555Z,26.27
2022-08-29T21:42:20.390Z,26.25
2022-08-29T21:44:48.841Z,26.23
2022-08-29T21:47:18.151Z,26.22
2022-08-29T21:49:48.509Z,26.20
2022-08-29T21:52:16.952Z,26.17
2022-08-29T21:54:45.769Z,26.16
2022-08-29T21:57:17.401Z,26.15
2022-08-29T21:59:48.396Z,26.13
2022-08-29T22:02:17.558Z,26.13
2022-08-29T22:04:46.149Z,26.11
2022-08-29T22:07:14.535Z,26.09
2022-08-29T22:09:42.948Z,26.08
2022-08-29T22:12:14.203Z,26.08
2022-08-29T22:15:00.131Z,26.06
2022-08-29T22:17:30.276Z,26.03
2022-08-29T22:19:58.727Z,26.01
2022-08-29T22:22:27.201Z,26.01
2022-08-29T22:24:55.804Z,25.99
2022-08-29T22:27:24.219Z,25.98
2022-08-29T22:29:52.610Z,25.97
2022-08-29T22:32:21.104Z,25.96
2022-08-29T22:34:51.562Z,25.94
2022-08-29T22:37:19.974Z,25.93
2022-08-29T22:39:48.308Z,25.91
2022-08-29T22:42:17.416Z,25.89
2022-08-29T22:47:34.130Z,25.85
2022-08-29T22:50:04.849Z,25.81
2022-08-29T22:52:33.298Z,25.78
2022-08-29T22:55:01.764Z,25.77
2022-08-29T22:57:30.246Z,25.76
2022-08-29T22:59:58.614Z,25.73
2022-08-29T23:02:27.228Z,25.69
2022-08-29T23:04:55.839Z,25.67
2022-08-29T23:07:25.644Z,25.64
2022-08-29T23:09:54.122Z,25.62
2022-08-29T23:12:22.483Z,25.58
2022-08-29T23:14:52.297Z,25.55
2022-08-29T23:17:21.083Z,25.53
2022-08-29T23:19:50.069Z,25.49
2022-08-29T23:22:18.653Z,25.48
2022-08-29T23:24:58.408Z,25.44
2022-08-29T23:27:29.158Z,25.42
2022-08-29T23:29:58.921Z,25.40
2022-08-29T23:32:28.264Z,25.38
2022-08-29T23:34:57.114Z,25.36
2022-08-29T23:37:26.378Z,25.33
2022-08-29T23:39:56.260Z,25.33
2022-08-29T23:42:24.878Z,25.31
2022-08-29T23:44:53.323Z,25.30
2022-08-29T23:47:22.101Z,25.28
2022-08-29T23:49:50.473Z,25.26
2022-08-29T23:52:19.117Z,25.25
2022-08-29T23:54:47.539Z,25.24
2022-08-29T23:57:17.407Z,25.22
